Time;durP1;ratioP1;P1;durP2;ratioP2;P2;SDS_P1;SDS_P2;PMS_P1;PMS_P2;Temp;Humidity;BMP_temperature;BMP_pressure;BME280_temperature;BME280_humidity;BME280_pressure;Samples;Min_cycle;Max_cycle;Signal;HPM_P1;HPM_P2
2021/01/06 00:01:08;;;;;;;3.13;2.08;;;;;;;2.78;80.26;102176.69;4966301;28;20055;-53
2021/01/06 00:03:34;;;;;;;6.88;1.58;;;;;;;2.73;80.35;102176.66;4958832;28;20055;-52
2021/01/06 00:06:07;;;;;;;7.03;1.92;;;;;;;2.69;80.25;102171.97;4959591;28;20054;-50
2021/01/06 00:08:34;;;;;;;4.00;1.58;;;;;;;2.63;80.29;102173.81;4959472;29;20560;-49
2021/01/06 00:11:01;;;;;;;5.13;2.03;;;;;;;2.59;80.70;102164.50;4970155;28;20054;-53
2021/01/06 00:13:28;;;;;;;6.18;2.90;;;;;;;2.58;80.54;102165.56;4966432;28;20070;-51
2021/01/06 00:15:55;;;;;;;7.45;2.58;;;;;;;2.58;80.80;102162.84;4961461;28;20047;-52
2021/01/06 00:18:23;;;;;;;7.30;2.88;;;;;;;2.58;81.00;102171.03;4960012;28;20098;-51
2021/01/06 00:20:50;;;;;;;4.25;2.55;;;;;;;2.57;80.80;102158.44;4964615;28;20047;-49
2021/01/06 00:23:17;;;;;;;8.40;2.30;;;;;;;2.56;80.99;102161.44;4986339;28;20403;-50
2021/01/06 00:25:43;;;;;;;5.25;2.17;;;;;;;2.57;80.77;102157.63;4980024;28;20101;-53
2021/01/06 00:28:12;;;;;;;6.60;3.05;;;;;;;2.56;80.62;102161.44;4961141;28;20038;-54
2021/01/06 00:30:47;;;;;;;8.88;3.50;;;;;;;2.54;80.75;102158.97;4971907;28;20102;-48
2021/01/06 00:33:19;;;;;;;7.35;2.92;;;;;;;2.55;80.79;102160.63;4979217;28;20046;-50
2021/01/06 00:36:09;;;;;;;5.90;2.88;;;;;;;2.54;81.06;102155.41;4995247;28;20054;-50
2021/01/06 00:38:37;;;;;;;5.68;3.78;;;;;;;2.57;80.87;102152.16;4960584;28;20046;-48
2021/01/06 00:41:06;;;;;;;9.88;3.08;;;;;;;2.56;81.03;102151.34;4978670;28;20126;-51
2021/01/06 00:43:32;;;;;;;11.05;3.17;;;;;;;2.57;80.81;102157.63;4986716;28;20042;-51
2021/01/06 00:45:59;;;;;;;7.07;2.90;;;;;;;2.56;80.92;102145.88;4981061;28;20058;-52
2021/01/06 00:48:25;;;;;;;5.55;2.47;;;;;;;2.56;81.00;102151.34;4976988;28;20050;-50
2021/01/06 00:50:52;;;;;;;9.55;3.10;;;;;;;2.57;80.88;102147.50;4985433;28;20043;-52
2021/01/06 00:53:22;;;;;;;8.63;3.55;;;;;;;2.59;80.98;102145.38;4978352;28;20502;-52
2021/01/06 00:55:52;;;;;;;6.78;3.05;;;;;;;2.60;80.92;102146.16;4981203;28;20535;-48
2021/01/06 00:58:19;;;;;;;6.57;2.50;;;;;;;2.57;80.81;102152.97;4980142;28;20102;-51
2021/01/06 01:00:45;;;;;;;4.18;2.45;;;;;;;2.57;81.03;102144.78;4980759;28;20125;-53
2021/01/06 01:03:13;;;;;;;9.05;3.90;;;;;;;2.58;81.07;102154.63;4987189;28;20065;-51
2021/01/06 01:05:39;;;;;;;5.22;2.78;;;;;;;2.61;81.16;102150.56;4982372;28;20070;-52
2021/01/06 01:08:08;;;;;;;8.30;2.95;;;;;;;2.63;81.15;102149.22;4976028;28;20134;-55
2021/01/06 01:10:43;;;;;;;9.05;3.65;;;;;;;2.63;82.05;102146.47;4988464;28;20043;-52
2021/01/06 01:13:18;;;;;;;6.05;2.30;;;;;;;2.62;81.90;102144.03;4975460;28;20046;-51
2021/01/06 01:15:47;;;;;;;4.78;2.63;;;;;;;2.62;81.62;102139.34;4973059;28;20047;-48
2021/01/06 01:18:16;;;;;;;7.80;3.20;;;;;;;2.63;81.67;102143.75;4955756;28;20051;-50
2021/01/06 01:20:49;;;;;;;8.00;3.45;;;;;;;2.63;81.66;102138.28;4983202;28;20062;-53
2021/01/06 01:23:18;;;;;;;8.18;2.17;;;;;;;2.64;82.03;102139.94;4989711;28;20133;-53
2021/01/06 01:25:45;;;;;;;6.72;2.10;;;;;;;2.67;81.81;102135.88;4977581;28;20043;-51
2021/01/06 01:28:14;;;;;;;4.80;2.50;;;;;;;2.67;81.73;102125.75;4978909;28;20046;-51
2021/01/06 01:30:40;;;;;;;7.05;2.38;;;;;;;2.67;82.06;102125.75;5010533;28;20128;-49
2021/01/06 01:33:06;;;;;;;7.72;2.80;;;;;;;2.69;82.16;102129.06;4980920;28;20183;-50
2021/01/06 01:35:34;;;;;;;7.72;2.78;;;;;;;2.68;81.83;102123.81;4994356;28;20140;-53
2021/01/06 01:38:02;;;;;;;3.25;2.47;;;;;;;2.65;81.65;102118.91;4975725;28;20034;-50
2021/01/06 01:40:36;;;;;;;8.75;3.50;;;;;;;2.62;81.86;102120.22;4978917;28;20125;-50
2021/01/06 01:43:21;;;;;;;7.78;3.45;;;;;;;2.58;82.13;102119.09;4980209;28;20636;-49
2021/01/06 01:45:51;;;;;;;8.05;3.63;;;;;;;2.57;81.94;102119.38;4991373;28;20086;-51
2021/01/06 01:48:29;;;;;;;6.30;2.78;;;;;;;2.57;82.13;102114.69;4974835;28;20058;-49
2021/01/06 01:51:01;;;;;;;9.88;3.03;;;;;;;2.55;81.83;102108.66;4974976;28;20046;-50
2021/01/06 01:53:39;;;;;;;8.32;2.95;;;;;;;2.52;81.95;102111.91;4974676;28;20057;-51
2021/01/06 01:56:11;;;;;;;6.05;2.63;;;;;;;2.52;82.11;102102.88;4986487;28;20050;-54
2021/01/06 01:58:41;;;;;;;7.03;2.58;;;;;;;2.53;81.92;102112.75;4992995;28;20516;-49
2021/01/06 02:01:09;;;;;;;7.03;2.75;;;;;;;2.53;81.96;102102.66;4978689;28;20047;-49
2021/01/06 02:04:01;;;;;;;5.00;2.17;;;;;;;2.51;82.11;102114.94;4974051;28;20097;-51
2021/01/06 02:06:55;;;;;;;4.75;2.90;;;;;;;2.51;82.19;102098.53;4966205;28;20119;-50
2021/01/06 02:09:36;;;;;;;11.38;2.55;;;;;;;2.52;82.02;102100.16;4961187;28;20380;-49
2021/01/06 02:12:15;;;;;;;5.63;2.08;;;;;;;2.52;82.28;102100.16;4976847;28;20039;-53
2021/01/06 02:14:56;;;;;;;7.28;2.05;;;;;;;2.53;82.24;102097.19;4978052;28;20366;-50
2021/01/06 02:17:22;;;;;;;5.10;2.28;;;;;;;2.56;82.08;102104.03;4974738;28;20171;-50
2021/01/06 02:19:49;;;;;;;7.88;2.58;;;;;;;2.58;81.95;102107.34;4972348;28;20042;-48
2021/01/06 02:22:19;;;;;;;6.75;1.90;;;;;;;2.58;82.12;102099.13;4974076;28;20053;-53
2021/01/06 02:24:49;;;;;;;11.30;3.15;;;;;;;2.58;81.91;102116.38;4973652;28;20078;-50
2021/01/06 02:27:18;;;;;;;4.57;2.50;;;;;;;2.57;82.19;102105.69;4972241;28;20828;-49
2021/01/06 02:29:45;;;;;;;9.02;2.70;;;;;;;2.54;82.16;102112.50;4986159;28;20042;-51
2021/01/06 02:32:12;;;;;;;5.55;2.10;;;;;;;2.51;81.97;102104.81;4983943;28;20050;-49
2021/01/06 02:34:41;;;;;;;10.70;2.50;;;;;;;2.46;82.03;102112.97;4983299;28;20050;-51
2021/01/06 02:37:08;;;;;;;6.55;3.83;;;;;;;2.46;82.42;102107.50;4973833;28;20457;-53
2021/01/06 02:39:35;;;;;;;6.13;2.03;;;;;;;2.39;82.36;102112.34;4973164;28;20093;-50
2021/01/06 02:42:02;;;;;;;2.97;2.25;;;;;;;2.38;82.27;102116.16;4975259;28;20057;-52
2021/01/06 02:44:29;;;;;;;3.10;2.00;;;;;;;2.38;82.43;102113.44;4979860;28;20074;-50
2021/01/06 02:46:56;;;;;;;5.72;2.25;;;;;;;2.36;82.29;102107.38;4972155;28;20477;-49
2021/01/06 02:49:23;;;;;;;5.90;2.20;;;;;;;2.33;82.64;102097.78;4973522;28;20508;-49
2021/01/06 02:51:58;;;;;;;2.90;1.80;;;;;;;2.32;82.51;102095.31;4955916;28;20493;-50
2021/01/06 02:54:35;;;;;;;5.45;1.73;;;;;;;2.32;82.54;102098.06;4981539;28;20121;-51
2021/01/06 02:57:03;;;;;;;3.95;2.42;;;;;;;2.32;82.47;102089.88;4979592;28;20093;-49
2021/01/06 02:59:46;;;;;;;9.18;2.28;;;;;;;2.28;82.66;102085.97;4973567;28;20070;-50
2021/01/06 03:02:14;;;;;;;;;;;;;;;2.25;82.97;102091.97;4973532;28;20031;-49
2021/01/06 03:04:47;;;;;;;7.68;2.90;;;;;;;2.27;82.30;102093.38;4971650;28;19921;-50
2021/01/06 03:07:16;;;;;;;4.90;2.60;;;;;;;2.27;82.70;102078.88;4940495;28;20455;-51
2021/01/06 03:09:44;;;;;;;6.55;2.58;;;;;;;2.29;82.42;102084.91;4978232;28;20122;-52
2021/01/06 03:12:23;;;;;;;6.32;2.38;;;;;;;2.29;82.63;102090.38;4990732;28;20419;-50
2021/01/06 03:14:51;;;;;;;8.20;3.47;;;;;;;2.29;82.72;102073.97;4973758;28;20038;-53
2021/01/06 03:17:21;;;;;;;6.80;2.75;;;;;;;2.32;82.69;102076.19;4976453;28;20043;-50
2021/01/06 03:19:52;;;;;;;4.20;2.50;;;;;;;2.32;82.76;102079.75;4973282;28;20098;-52
2021/01/06 03:22:21;;;;;;;6.10;2.20;;;;;;;2.33;82.53;102092.31;4958757;28;20084;-51
2021/01/06 03:25:01;;;;;;;5.35;2.22;;;;;;;2.35;83.12;102079.25;4988390;28;20046;-50
2021/01/06 03:27:30;;;;;;;5.93;2.47;;;;;;;2.36;83.05;102080.06;4976582;28;20058;-51
2021/01/06 03:29:58;;;;;;;7.82;2.38;;;;;;;2.36;82.59;102072.69;4986641;28;20042;-51
2021/01/06 03:32:36;;;;;;;5.55;2.28;;;;;;;2.32;82.73;102068.84;4972019;28;20046;-51
2021/01/06 03:35:24;;;;;;;6.35;2.00;;;;;;;2.29;83.08;102071.25;4972583;28;20038;-50
2021/01/06 03:37:59;;;;;;;5.43;1.83;;;;;;;2.23;83.27;102077.72;4973985;28;20043;-52
2021/01/06 03:40:36;;;;;;;4.47;2.30;;;;;;;2.22;83.58;102062.44;4975453;28;20408;-53
2021/01/06 03:43:08;;;;;;;7.78;2.28;;;;;;;2.22;83.16;102062.44;4984140;28;20066;-52
2021/01/06 03:45:39;;;;;;;4.68;2.47;;;;;;;2.19;83.36;102062.94;4971512;28;20050;-52
2021/01/06 03:48:12;;;;;;;4.20;1.90;;;;;;;2.18;83.66;102056.66;4973002;28;20141;-50
2021/01/06 03:50:42;;;;;;;6.47;2.33;;;;;;;2.18;83.48;102053.09;4979841;28;20125;-49
2021/01/06 03:53:20;;;;;;;6.97;2.45;;;;;;;2.14;83.95;102062.91;4972430;28;20151;-51
2021/01/06 03:55:59;;;;;;;4.13;2.90;;;;;;;2.15;83.92;102067.25;4979273;28;20080;-51
2021/01/06 03:58:38;;;;;;;11.25;2.88;;;;;;;2.15;83.90;102062.63;4979132;28;20081;-52
2021/01/06 04:01:23;;;;;;;10.73;2.88;;;;;;;2.14;84.35;102066.47;4972312;28;20101;-49
2021/01/06 04:04:11;;;;;;;7.90;3.25;;;;;;;2.14;83.89;102049.25;4954828;28;20090;-49
2021/01/06 04:06:42;;;;;;;4.32;2.38;;;;;;;2.13;84.06;102044.84;4972341;28;20046;-50
2021/01/06 04:09:24;;;;;;;4.18;2.38;;;;;;;2.12;83.93;102052.22;4974119;28;20039;-50
2021/01/06 04:12:02;;;;;;;9.20;2.58;;;;;;;2.18;84.24;102050.34;4969162;28;20070;-49
2021/01/06 04:14:28;;;;;;;4.63;2.53;;;;;;;2.21;83.58;102038.91;4979537;28;20129;-51
2021/01/06 04:16:54;;;;;;;5.28;2.92;;;;;;;2.20;83.79;102048.19;4975604;28;20043;-52
2021/01/06 04:19:21;;;;;;;10.75;3.63;;;;;;;2.20;83.67;102037.25;4955235;28;20070;-50
2021/01/06 04:21:47;;;;;;;6.47;3.60;;;;;;;2.22;84.26;102049.59;4972233;28;20051;-50
2021/01/06 04:24:13;;;;;;;9.77;3.47;;;;;;;2.22;83.81;102041.41;4971062;28;20838;-55
2021/01/06 04:26:40;;;;;;;9.10;4.32;;;;;;;2.23;83.85;102047.69;4973490;28;20058;-51
2021/01/06 04:29:07;;;;;;;5.75;3.78;;;;;;;2.21;84.26;102049.84;4975403;28;20572;-51
2021/01/06 04:31:34;;;;;;;4.68;3.58;;;;;;;2.21;83.96;102044.38;4975287;28;20085;-50
2021/01/06 04:34:00;;;;;;;8.85;3.70;;;;;;;2.24;83.94;102043.88;4990278;28;20042;-50
2021/01/06 04:36:30;;;;;;;7.10;4.05;;;;;;;2.24;84.17;102039.25;4972774;28;20051;-53
2021/01/06 04:39:01;;;;;;;6.57;3.63;;;;;;;2.23;84.44;102036.75;4990237;28;20046;-52
2021/01/06 04:41:36;;;;;;;6.05;3.45;;;;;;;2.22;84.19;102019.56;4982387;28;20042;-49
2021/01/06 04:44:23;;;;;;;6.03;3.47;;;;;;;2.23;83.97;102025.81;4984656;28;20082;-51
2021/01/06 04:47:27;;;;;;;5.20;3.28;;;;;;;2.22;83.98;102018.72;4979776;28;20035;-51
2021/01/06 04:50:12;;;;;;;6.78;3.95;;;;;;;2.24;84.04;102025.56;4964460;28;20050;-49
2021/01/06 04:52:44;;;;;;;6.07;3.63;;;;;;;2.24;84.00;102022.00;4975706;28;20093;-50
2021/01/06 04:55:48;;;;;;;6.43;4.50;;;;;;;2.24;84.04;102027.47;4975642;28;20050;-49
2021/01/06 04:58:36;;;;;;;6.15;3.67;;;;;;;2.26;83.66;102019.84;4974618;28;20078;-52
2021/01/06 05:01:04;;;;;;;5.13;3.63;;;;;;;2.28;83.83;102025.88;4994744;28;20039;-49
2021/01/06 05:04:18;;;;;;;9.00;4.87;;;;;;;2.30;83.69;102018.25;4989508;28;20045;-51
2021/01/06 05:07:17;;;;;;;8.35;3.75;;;;;;;2.28;83.93;102023.13;4965146;28;20134;-51
2021/01/06 05:09:49;;;;;;;8.90;4.10;;;;;;;2.28;83.64;102018.50;4968306;28;20137;-52
2021/01/06 05:12:44;;;;;;;6.60;4.18;;;;;;;2.29;83.54;102019.31;4993700;28;20081;-52
2021/01/06 05:15:11;;;;;;;9.73;4.25;;;;;;;2.31;83.83;102015.25;4987736;28;20043;-50
2021/01/06 05:17:42;;;;;;;6.88;3.58;;;;;;;2.31;83.96;102023.44;4973683;28;20043;-55
2021/01/06 05:20:09;;;;;;;6.97;3.58;;;;;;;2.35;83.72;102026.50;4974783;28;20047;-51
2021/01/06 05:22:36;;;;;;;6.28;3.83;;;;;;;2.33;83.70;102018.53;4975645;28;20046;-51
2021/01/06 05:25:04;;;;;;;7.00;2.78;;;;;;;2.31;83.92;102017.16;4987326;28;20047;-49
2021/01/06 05:27:39;;;;;;;9.00;2.72;;;;;;;2.30;84.03;102023.72;4973011;28;20042;-48
2021/01/06 05:30:24;;;;;;;6.97;2.70;;;;;;;2.25;84.37;102023.69;5005492;28;20057;-50
2021/01/06 05:32:58;;;;;;;5.25;2.97;;;;;;;2.24;84.23;102016.56;4977924;28;20043;-56
2021/01/06 05:35:29;;;;;;;6.18;2.70;;;;;;;2.20;84.12;102015.41;4975250;28;20035;-52
2021/01/06 05:37:58;;;;;;;4.38;3.20;;;;;;;2.15;83.90;102009.91;4974247;28;20458;-51
2021/01/06 05:40:31;;;;;;;8.43;2.58;;;;;;;2.14;84.19;102005.53;4978022;28;20042;-53
2021/01/06 05:43:01;;;;;;;4.65;2.65;;;;;;;2.10;84.47;102004.38;4992416;28;20035;-52
2021/01/06 05:45:37;;;;;;;4.57;2.67;;;;;;;2.08;84.30;102006.56;4976849;28;20086;-53
2021/01/06 05:48:17;;;;;;;8.05;3.10;;;;;;;2.03;84.09;102009.25;4989247;28;20432;-59
2021/01/06 05:51:03;;;;;;;4.25;2.47;;;;;;;1.98;84.06;102014.66;4993975;28;20084;-55
2021/01/06 05:53:37;;;;;;;4.75;2.70;;;;;;;1.95;84.38;102009.69;4988291;28;20388;-54
2021/01/06 05:56:23;;;;;;;3.47;1.90;;;;;;;1.92;84.47;102021.13;4991716;28;20073;-51
2021/01/06 05:58:55;;;;;;;5.40;1.95;;;;;;;1.93;84.49;102028.25;4982663;28;20046;-53
2021/01/06 06:01:43;;;;;;;4.35;1.80;;;;;;;1.90;84.86;102009.66;4974456;28;20038;-56
2021/01/06 06:04:42;;;;;;;3.60;1.60;;;;;;;1.92;84.83;102021.13;4986245;28;20043;-51
2021/01/06 06:07:12;;;;;;;4.05;2.25;;;;;;;1.95;84.70;102012.44;4972527;28;20039;-50
2021/01/06 06:09:44;;;;;;;4.03;1.52;;;;;;;1.98;84.50;102017.38;4985743;28;20129;-52
2021/01/06 06:12:41;;;;;;;2.22;1.60;;;;;;;1.99;84.79;102010.81;4985308;28;20101;-53
2021/01/06 06:15:10;;;;;;;4.13;1.80;;;;;;;2.03;84.74;102022.91;4972994;28;20087;-52
2021/01/06 06:17:55;;;;;;;1.90;1.42;;;;;;;2.06;84.84;102023.22;4991974;28;20050;-50
2021/01/06 06:21:00;;;;;;;4.60;2.13;;;;;;;2.08;84.55;102022.94;4983912;28;20138;-50
2021/01/06 06:23:33;;;;;;;5.80;1.85;;;;;;;2.11;84.36;102014.25;4971161;28;20054;-53
2021/01/06 06:26:17;;;;;;;3.70;1.98;;;;;;;2.11;84.19;102012.34;4978708;28;20073;-53
2021/01/06 06:29:04;;;;;;;5.05;2.35;;;;;;;2.12;84.40;102007.69;4994189;28;20060;-53
2021/01/06 06:31:33;;;;;;;3.63;2.28;;;;;;;2.14;84.35;102016.47;4988144;28;20046;-49
2021/01/06 06:34:03;;;;;;;3.67;1.88;;;;;;;2.13;84.40;102017.53;4954522;28;20105;-51
2021/01/06 06:36:32;;;;;;;5.13;2.25;;;;;;;2.12;84.28;102013.16;4954361;28;20039;-53
2021/01/06 06:39:22;;;;;;;8.10;3.00;;;;;;;2.14;84.67;102011.81;4971987;28;20050;-50
2021/01/06 06:41:55;;;;;;;7.15;2.30;;;;;;;2.16;84.61;102014.28;4972183;28;20763;-50
2021/01/06 06:44:21;;;;;;;8.98;2.83;;;;;;;2.17;84.49;102005.03;4971842;28;20039;-53
2021/01/06 06:47:09;;;;;;;8.25;3.05;;;;;;;2.16;84.56;102006.09;4985184;28;20057;-52
2021/01/06 06:49:54;;;;;;;7.03;4.03;;;;;;;2.15;84.60;102008.00;4972008;28;20121;-54
2021/01/06 06:52:43;;;;;;;5.28;2.42;;;;;;;2.15;84.79;101996.22;4975582;28;20045;-52
2021/01/06 06:55:48;;;;;;;6.25;1.95;;;;;;;2.16;85.00;102001.47;4986900;28;20097;-52
2021/01/06 06:58:14;;;;;;;3.03;1.20;;;;;;;2.18;84.94;101995.72;4950262;28;20508;-53
2021/01/06 07:00:41;;;;;;;3.42;1.50;;;;;;;2.21;84.69;101995.22;4972598;28;20133;-53
2021/01/06 07:03:08;;;;;;;3.67;1.20;;;;;;;2.22;84.97;101997.69;4960759;28;20113;-54
2021/01/06 07:05:47;;;;;;;5.85;1.52;;;;;;;2.26;85.03;102008.91;4971622;28;20085;-54
2021/01/06 07:08:50;;;;;;;4.10;1.70;;;;;;;2.29;85.10;102002.94;4954292;28;20544;-54
2021/01/06 07:11:45;;;;;;;2.22;1.58;;;;;;;2.32;84.86;101999.69;4987086;28;20055;-50
2021/01/06 07:14:23;;;;;;;3.60;1.10;;;;;;;2.34;85.16;102005.72;4972196;28;20047;-49
2021/01/06 07:16:51;;;;;;;5.70;1.38;;;;;;;2.37;84.83;102005.19;4972837;28;20042;-55
2021/01/06 07:19:23;;;;;;;2.00;1.25;;;;;;;2.37;85.03;102005.19;4971723;28;20051;-52
2021/01/06 07:22:08;;;;;;;5.05;1.67;;;;;;;2.37;85.14;102003.28;4971549;28;20070;-52
2021/01/06 07:24:34;;;;;;;3.22;1.60;;;;;;;2.38;84.94;102001.38;4970919;28;20102;-55
2021/01/06 07:27:03;;;;;;;2.97;1.80;;;;;;;2.40;85.13;101996.47;4976776;28;20062;-51
2021/01/06 07:29:44;;;;;;;7.53;2.33;;;;;;;2.42;84.83;102002.50;4986374;28;20042;-49
2021/01/06 07:32:11;;;;;;;5.40;1.98;;;;;;;2.43;85.09;101993.22;4954874;28;20051;-54
2021/01/06 07:34:56;;;;;;;4.05;1.90;;;;;;;2.44;84.75;101992.13;4971437;28;20138;-54
2021/01/06 07:37:30;;;;;;;3.90;2.20;;;;;;;2.45;84.71;102004.72;4973031;28;20035;-49
2021/01/06 07:39:59;;;;;;;5.57;2.20;;;;;;;2.41;84.77;102001.66;4967739;28;20101;-50
2021/01/06 07:42:40;;;;;;;4.95;1.70;;;;;;;2.41;84.96;102003.56;4969144;28;20061;-52
2021/01/06 07:45:20;;;;;;;4.25;1.70;;;;;;;2.41;84.98;101998.09;4971096;28;20441;-53
2021/01/06 07:48:06;;;;;;;6.32;1.80;;;;;;;2.40;84.90;101999.22;4961700;28;20051;-52
2021/01/06 07:51:02;;;;;;;3.25;2.13;;;;;;;2.38;85.06;102013.13;4969525;28;20155;-52
2021/01/06 07:53:43;;;;;;;4.60;1.90;;;;;;;2.36;85.19;101996.16;4964029;28;20137;-50
2021/01/06 07:56:24;;;;;;;4.20;2.10;;;;;;;2.38;85.09;102007.66;4976713;28;20108;-53
2021/01/06 07:58:55;;;;;;;5.60;2.22;;;;;;;2.37;84.97;102002.47;4968227;28;20052;-55
2021/01/06 08:01:31;;;;;;;7.45;1.80;;;;;;;2.35;84.79;102004.63;4975278;28;20082;-55
2021/01/06 08:04:02;;;;;;;2.75;1.80;;;;;;;2.35;84.77;102000.00;4973428;28;20042;-54
2021/01/06 08:06:53;;;;;;;2.88;1.42;;;;;;;2.35;84.76;101994.53;4969341;28;20047;-54
2021/01/06 08:09:32;;;;;;;3.78;1.00;;;;;;;2.36;85.00;101998.06;4973360;28;20396;-50
2021/01/06 08:12:00;;;;;;;3.33;2.03;;;;;;;2.36;84.99;101993.44;5009470;28;20049;-55
2021/01/06 08:14:33;;;;;;;3.38;1.67;;;;;;;2.34;85.05;101997.50;4951724;28;20042;-52
2021/01/06 08:17:24;;;;;;;1.30;1.20;;;;;;;2.32;84.75;102005.16;4970422;28;20055;-50
2021/01/06 08:20:10;;;;;;;4.35;1.60;;;;;;;2.29;84.68;102005.66;4973820;28;20039;-52
2021/01/06 08:23:03;;;;;;;2.80;1.20;;;;;;;2.29;84.91;102024.78;4974948;28;20086;-49
2021/01/06 08:25:32;;;;;;;;;;;;;;;2.26;85.01;102020.66;4976337;28;20069;-54
2021/01/06 08:27:59;;;;;;;4.60;1.80;;;;;;;2.26;84.52;102022.56;4986963;28;19974;-51
2021/01/06 08:30:30;;;;;;;5.35;1.70;;;;;;;2.22;84.71;102013.25;4992331;28;20050;-53
2021/01/06 08:33:04;;;;;;;4.85;1.98;;;;;;;2.19;84.62;102008.31;4994517;28;20049;-56
2021/01/06 08:35:37;;;;;;;5.28;2.10;;;;;;;2.15;84.84;102023.56;4983663;28;20072;-55
2021/01/06 08:38:06;;;;;;;7.10;2.30;;;;;;;2.15;84.51;102012.63;4972340;28;20039;-52
2021/01/06 08:40:39;;;;;;;4.28;2.03;;;;;;;2.15;84.62;102021.66;4974447;28;20038;-54
2021/01/06 08:43:12;;;;;;;4.47;2.25;;;;;;;2.17;84.79;102032.34;4973684;28;20050;-52
2021/01/06 08:45:51;;;;;;;6.57;2.20;;;;;;;2.19;84.58;102024.69;4972860;28;20612;-54
2021/01/06 08:48:29;;;;;;;8.25;2.05;;;;;;;2.21;84.48;102033.47;4983074;28;20042;-55
2021/01/06 08:51:06;;;;;;;8.65;2.35;;;;;;;2.22;84.71;102026.91;4981457;28;20074;-56
2021/01/06 08:53:35;;;;;;;8.35;2.30;;;;;;;2.24;84.32;102027.47;4973007;28;20070;-51
2021/01/06 08:56:07;;;;;;;5.00;2.08;;;;;;;2.23;84.66;102029.38;4986606;28;20555;-51
2021/01/06 08:58:48;;;;;;;;;;;;;;;2.24;84.67;102022.84;4962277;28;20047;-49
2021/01/06 09:01:41;;;;;;;3.20;2.28;;;;;;;2.25;84.40;102023.69;4978792;28;20276;-52
2021/01/06 09:04:15;;;;;;;3.25;2.03;;;;;;;2.27;84.37;102026.97;4979270;28;20379;-51
2021/01/06 09:06:54;;;;;;;6.53;2.20;;;;;;;2.27;84.40;102016.03;4973757;28;20121;-50
2021/01/06 09:09:23;;;;;;;3.28;1.73;;;;;;;2.28;84.46;102015.75;4976926;28;20128;-51
2021/01/06 09:11:54;;;;;;;5.50;2.05;;;;;;;2.32;84.33;102024.28;4991423;28;20054;-52
2021/01/06 09:14:31;;;;;;;6.35;1.98;;;;;;;2.32;84.70;102024.28;4971687;28;20133;-52
2021/01/06 09:17:16;;;;;;;8.07;2.35;;;;;;;2.31;84.38;102022.63;4980920;28;20038;-51
2021/01/06 09:19:49;;;;;;;6.00;3.20;;;;;;;2.28;84.50;102026.69;4956943;28;20159;-54
2021/01/06 09:22:17;;;;;;;5.68;3.20;;;;;;;2.26;84.36;102028.03;4977454;28;20067;-55
2021/01/06 09:24:44;;;;;;;6.63;3.60;;;;;;;2.27;84.51;102024.22;4977024;28;20388;-54
2021/01/06 09:27:32;;;;;;;8.70;3.38;;;;;;;2.25;84.69;102026.41;4971426;28;20050;-53
2021/01/06 09:30:00;;;;;;;6.85;3.58;;;;;;;2.24;84.93;102028.31;4997482;28;20184;-51
2021/01/06 09:32:32;;;;;;;5.43;2.13;;;;;;;2.25;84.91;102021.75;5010281;28;20130;-53
2021/01/06 09:35:03;;;;;;;4.43;2.08;;;;;;;2.29;84.58;102019.31;4972227;28;20038;-50
2021/01/06 09:37:32;;;;;;;5.00;2.20;;;;;;;2.29;85.08;102025.63;4975004;28;20567;-54
2021/01/06 09:40:10;;;;;;;4.20;1.85;;;;;;;2.32;85.18;102024.28;4972657;28;20300;-55
2021/01/06 09:42:39;;;;;;;2.35;1.33;;;;;;;2.35;84.84;102024.59;4987607;28;20146;-53
2021/01/06 09:45:07;;;;;;;5.55;1.52;;;;;;;2.35;84.79;102012.84;4982704;28;20081;-52
2021/01/06 09:47:39;;;;;;;2.38;1.25;;;;;;;2.35;85.16;102018.31;4983249;28;20095;-54
2021/01/06 09:50:16;;;;;;;4.80;1.77;;;;;;;2.39;85.06;102011.22;4972644;28;20143;-53
2021/01/06 09:52:47;;;;;;;4.40;1.77;;;;;;;2.44;85.07;102022.19;4972408;28;20509;-51
2021/01/06 09:55:17;;;;;;;7.38;4.15;;;;;;;2.46;84.68;102018.09;4973222;28;20106;-55
2021/01/06 09:57:47;;;;;;;2.95;1.88;;;;;;;2.46;85.13;102014.56;4970678;28;20130;-51
2021/01/06 10:00:36;;;;;;;2.75;1.73;;;;;;;2.46;84.94;102011.84;4971806;28;20166;-52
2021/01/06 10:03:04;;;;;;;6.78;2.15;;;;;;;2.50;84.57;102010.22;4989887;28;20048;-56
2021/01/06 10:05:45;;;;;;;5.07;3.15;;;;;;;2.48;84.47;102015.13;4988372;28;20042;-54
2021/01/06 10:08:30;;;;;;;5.07;2.85;;;;;;;2.47;84.60;102010.75;4979448;28;20134;-54
2021/01/06 10:11:05;;;;;;;5.60;3.22;;;;;;;2.46;84.43;102009.91;4993786;28;20045;-54
2021/01/06 10:13:53;;;;;;;4.75;2.08;;;;;;;2.46;84.40;102014.56;4972042;28;20039;-50
2021/01/06 10:16:32;;;;;;;3.42;3.00;;;;;;;2.48;84.65;102023.34;4978566;28;20042;-55
2021/01/06 10:19:10;;;;;;;6.28;2.55;;;;;;;2.50;84.61;102015.69;4971033;28;20151;-53
2021/01/06 10:21:55;;;;;;;5.15;2.50;;;;;;;2.47;84.32;102010.75;4987490;28;20054;-52
2021/01/06 10:24:43;;;;;;;6.35;2.22;;;;;;;2.49;84.17;102010.50;4974484;28;20063;-54
2021/01/06 10:27:53;;;;;;;5.80;2.60;;;;;;;2.52;84.53;102008.03;4971538;28;20501;-53
2021/01/06 10:30:22;;;;;;;6.68;2.80;;;;;;;2.54;84.31;102016.84;4963686;28;20509;-54
2021/01/06 10:32:49;;;;;;;7.75;3.20;;;;;;;2.56;84.34;102008.34;4971168;28;20382;-51
2021/01/06 10:35:30;;;;;;;4.43;2.90;;;;;;;2.57;84.23;102005.34;4982099;28;20061;-55
2021/01/06 10:38:10;;;;;;;9.57;4.07;;;;;;;2.62;84.16;102010.84;4979820;28;20137;-55
2021/01/06 10:40:39;;;;;;;6.88;3.55;;;;;;;2.70;84.17;102004.91;4971433;28;20058;-51
2021/01/06 10:43:34;;;;;;;7.30;3.65;;;;;;;2.74;84.30;102003.31;4972002;28;20516;-55
2021/01/06 10:46:02;;;;;;;6.60;3.20;;;;;;;2.80;84.22;101999.53;4958459;28;20452;-54
2021/01/06 10:48:47;;;;;;;5.28;2.70;;;;;;;2.77;83.67;101997.31;4990851;28;20066;-52
2021/01/06 10:51:51;;;;;;;6.25;1.98;;;;;;;2.77;83.87;101989.13;4973738;28;20651;-55
2021/01/06 10:54:32;;;;;;;5.13;2.03;;;;;;;2.83;84.27;101990.78;4981668;28;20050;-54
2021/01/06 10:57:17;;;;;;;3.72;2.33;;;;;;;2.92;84.47;101983.75;4971956;28;20039;-56
2021/01/06 11:00:23;;;;;;;3.45;1.95;;;;;;;2.95;84.32;101985.94;4971452;28;20489;-54
2021/01/06 11:03:09;;;;;;;5.68;1.95;;;;;;;2.97;83.95;101981.03;4978638;28;20039;-56
2021/01/06 11:05:40;;;;;;;4.60;1.27;;;;;;;2.94;84.12;101972.53;4971795;28;20551;-54
2021/01/06 11:08:32;;;;;;;4.50;1.23;;;;;;;2.94;84.28;101961.56;4971989;28;20081;-53
2021/01/06 11:11:39;;;;;;;5.30;1.80;;;;;;;2.91;84.46;101968.41;5002079;28;20077;-54
2021/01/06 11:14:15;;;;;;;4.90;1.77;;;;;;;2.91;83.96;101962.94;4975236;28;20058;-52
2021/01/06 11:16:51;;;;;;;3.38;1.80;;;;;;;2.92;84.11;101969.22;4983556;28;20098;-56
2021/01/06 11:19:56;;;;;;;2.92;1.15;;;;;;;2.91;84.35;101960.19;4984515;28;20473;-53
2021/01/06 11:22:42;;;;;;;2.08;1.35;;;;;;;2.93;84.36;101963.50;4977702;28;20048;-54
2021/01/06 11:25:49;;;;;;;3.20;0.90;;;;;;;2.94;84.06;101967.88;4976517;28;20046;-53
2021/01/06 11:28:51;;;;;;;3.65;0.93;;;;;;;2.97;83.97;101950.94;4964907;28;20065;-55
2021/01/06 11:31:41;;;;;;;1.92;0.80;;;;;;;2.98;83.97;101947.13;4970750;28;20498;-57
2021/01/06 11:34:09;;;;;;;1.65;1.10;;;;;;;2.96;84.18;101949.31;4971597;28;20137;-52
2021/01/06 11:36:41;;;;;;;2.65;0.80;;;;;;;2.95;84.18;101944.91;4975347;28;20050;-54
2021/01/06 11:39:13;;;;;;;1.75;0.80;;;;;;;2.95;84.31;101942.19;4970865;28;20098;-52
2021/01/06 11:41:46;;;;;;;2.30;1.00;;;;;;;2.96;84.48;101937.53;4971903;28;20130;-55
2021/01/06 11:44:47;;;;;;;4.47;0.98;;;;;;;2.95;84.39;101928.50;4970677;28;20098;-53
2021/01/06 11:47:33;;;;;;;1.83;0.98;;;;;;;2.99;84.20;101932.34;4980717;28;20050;-50
2021/01/06 11:50:04;;;;;;;1.35;0.88;;;;;;;3.03;84.18;101935.38;4981743;28;20129;-57
2021/01/06 11:52:35;;;;;;;1.70;1.60;;;;;;;3.09;84.49;101931.59;4976151;28;20062;-53
2021/01/06 11:55:21;;;;;;;1.90;0.85;;;;;;;3.14;84.32;101923.41;4969481;28;20387;-53
2021/01/06 11:58:29;;;;;;;3.08;2.58;;;;;;;3.23;84.46;101915.50;4987238;28;20484;-53
2021/01/06 12:01:25;;;;;;;6.93;1.80;;;;;;;3.32;84.16;101900.19;4966361;28;20054;-54
2021/01/06 12:04:29;;;;;;;6.05;1.88;;;;;;;3.38;84.09;101899.13;4972074;28;20073;-54
2021/01/06 12:06:56;;;;;;;5.35;2.10;;;;;;;3.43;83.99;101890.94;4970413;28;20489;-51
2021/01/06 12:09:33;;;;;;;3.55;2.08;;;;;;;3.48;84.16;101890.94;4979224;28;20092;-56
2021/01/06 12:12:18;;;;;;;4.18;2.90;;;;;;;3.48;84.01;101882.72;4984089;28;20062;-55
2021/01/06 12:15:02;;;;;;;4.95;1.70;;;;;;;3.44;84.02;101873.44;4969478;28;20085;-55
2021/01/06 12:17:36;;;;;;;3.97;1.90;;;;;;;3.41;83.79;101888.47;4983280;28;20042;-54